Time;durP1;ratioP1;P1;durP2;ratioP2;P2;SDS_P1;SDS_P2;PMS_P1;PMS_P2;Temp;Humidity;BMP_temperature;BMP_pressure;BME280_temperature;BME280_humidity;BME280_pressure;Samples;Min_cycle;Max_cycle;Signal;HPM_P1;HPM_P2
2021/12/19 00:10:09;;;;;;;;;;;;;;;10.63;61.87;102526.56;4962311;28;7059;-72
2021/12/19 00:12:35;;;;;;;;;;;;;;;10.63;61.57;102521.44;4965587;28;6792;-72
2021/12/19 00:15:02;;;;;;;;;;;;;;;10.63;61.55;102517.97;4963646;28;7122;-73
2021/12/19 00:17:27;;;;;;;;;;;;;;;10.62;61.51;102511.94;4947190;28;6952;-73
2021/12/19 00:19:53;;;;;;;;;;;;;;;10.63;61.98;102517.97;4979427;28;6950;-73
2021/12/19 00:22:19;;;;;;;;;;;;;;;10.61;61.70;102517.81;4963493;28;6792;-73
2021/12/19 00:24:44;;;;;;;;;;;;;;;10.60;61.64;102510.91;4965720;28;6807;-72
2021/12/19 00:27:10;;;;;;;;;;;;;;;10.60;61.66;102515.16;4962596;28;6878;-73
2021/12/19 00:29:36;;;;;;;;;;;;;;;10.60;61.84;102512.59;4963045;28;6892;-72
2021/12/19 00:32:02;;;;;;;;;;;;;;;10.61;61.88;102514.38;4965195;28;6784;-73
2021/12/19 00:34:27;;;;;;;;;;;;;;;10.63;61.90;102511.19;4977684;28;6784;-73
2021/12/19 00:36:53;;;;;;;;;;;;;;;10.64;62.13;102504.38;4962572;28;7042;-72
2021/12/19 00:39:18;;;;;;;;;;;;;;;10.67;61.65;102518.34;4963340;28;7363;-72
2021/12/19 00:41:44;;;;;;;;;;;;;;;10.69;61.86;102510.78;4961875;28;6946;-73
2021/12/19 00:44:11;;;;;;;;;;;;;;;10.69;61.69;102511.66;4963574;28;6780;-73
2021/12/19 00:46:51;;;;;;;;;;;;;;;10.69;61.67;102509.09;4961249;28;6900;-73
2021/12/19 00:49:22;;;;;;;;;;;;;;;10.70;61.61;102497.19;4946556;28;6994;-72
2021/12/19 00:51:48;;;;;;;;;;;;;;;10.70;61.73;102495.50;4963693;28;6804;-73
2021/12/19 00:54:14;;;;;;;;;;;;;;;10.73;61.84;102491.41;4962504;28;7029;-72
2021/12/19 00:56:45;;;;;;;;;;;;;;;10.73;61.97;102487.16;4944293;28;6804;-72
2021/12/19 00:59:11;;;;;;;;;;;;;;;10.74;61.67;102491.50;4962762;28;7227;-73
2021/12/19 01:01:38;;;;;;;;;;;;;;;10.76;62.06;102483.94;4946201;28;7020;-73
2021/12/19 01:04:10;;;;;;;;;;;;;;;10.77;61.62;102478.03;4961439;28;7264;-73
2021/12/19 01:06:38;;;;;;;;;;;;;;;10.76;61.79;102478.81;4961767;28;7208;-73
2021/12/19 01:09:05;;;;;;;;;;;;;;;10.76;61.70;102489.09;4962870;28;6892;-73
2021/12/19 01:11:31;;;;;;;;;;;;;;;10.76;62.03;102479.69;4962384;28;7043;-72
2021/12/19 01:13:57;;;;;;;;;;;;;;;10.76;61.45;102478.81;4962653;28;6800;-72
2021/12/19 01:16:23;;;;;;;;;;;;;;;10.74;61.53;102473.56;4946108;28;6785;-72
2021/12/19 01:18:50;;;;;;;;;;;;;;;10.73;62.06;102469.19;4946573;28;6883;-72
2021/12/19 01:21:15;;;;;;;;;;;;;;;10.74;61.64;102470.13;4945808;28;7005;-72
2021/12/19 01:23:42;;;;;;;;;;;;;;;10.74;62.08;102462.41;4961638;28;6791;-72
2021/12/19 01:26:08;;;;;;;;;;;;;;;10.76;61.47;102463.44;4962813;28;6820;-72
2021/12/19 01:28:34;;;;;;;;;;;;;;;10.75;61.55;102470.22;4934422;28;6816;-72
2021/12/19 01:31:00;;;;;;;;;;;;;;;10.77;62.19;102476.41;4947592;28;7655;-73
2021/12/19 01:33:26;;;;;;;;;;;;;;;10.80;61.76;102475.72;4962406;28;6972;-72
2021/12/19 01:35:52;;;;;;;;;;;;;;;10.80;61.59;102485.97;4963250;28;6800;-72
2021/12/19 01:38:18;;;;;;;;;;;;;;;10.77;61.48;102485.75;4947358;28;6943;-72
2021/12/19 01:40:44;;;;;;;;;;;;;;;10.76;61.71;102489.09;4961585;28;7833;-72
2021/12/19 01:43:09;;;;;;;;;;;;;;;10.76;61.89;102494.22;4963188;28;6949;-72
2021/12/19 01:45:39;;;;;;;;;;;;;;;10.74;61.91;102486.38;4962686;28;6789;-73
2021/12/19 01:48:11;;;;;;;;;;;;;;;10.73;62.17;102479.47;4960513;28;6891;-73
2021/12/19 01:50:38;;;;;;;;;;;;;;;10.73;61.66;102479.47;4963287;28;7178;-73
2021/12/19 01:53:10;;;;;;;;;;;;;;;10.70;61.84;102469.84;4946687;28;6959;-73
2021/12/19 01:55:38;;;;;;;;;;;;;;;10.71;61.88;102468.19;4961046;28;6899;-72
2021/12/19 01:58:04;;;;;;;;;;;;;;;10.69;61.96;102452.66;4962126;28;6800;-72
2021/12/19 02:00:42;;;;;;;;;;;;;;;10.68;61.73;102463.69;4961063;28;6815;-73
2021/12/19 02:03:11;;;;;;;;;;;;;;;10.68;62.21;102461.13;4962886;28;6896;-72
2021/12/19 02:05:37;;;;;;;;;;;;;;;10.68;62.11;102461.13;4962749;28;6993;-73
2021/12/19 02:08:06;;;;;;;;;;;;;;;10.70;62.15;102451.91;4961538;28;7141;-73
2021/12/19 02:10:33;;;;;;;;;;;;;;;10.73;62.26;102453.81;4962036;28;6992;-72
2021/12/19 02:13:02;;;;;;;;;;;;;;;10.76;62.06;102454.06;4962389;28;6796;-72
2021/12/19 02:15:30;;;;;;;;;;;;;;;10.77;62.45;102445.63;4959947;28;7023;-72
2021/12/19 02:18:06;;;;;;;;;;;;;;;10.80;62.33;102445.84;4977434;28;6802;-73
2021/12/19 02:20:37;;;;;;;;;;;;;;;10.80;62.40;102439.81;4949397;28;6840;-72
2021/12/19 02:23:04;;;;;;;;;;;;;;;10.82;62.08;102441.72;4948570;28;7012;-73
2021/12/19 02:25:30;;;;;;;;;;;;;;;10.83;62.29;102440.94;4964936;28;6800;-73
2021/12/19 02:27:57;;;;;;;;;;;;;;;10.85;62.18;102435.94;4963558;28;7296;-72
2021/12/19 02:30:23;;;;;;;;;;;;;;;10.86;61.86;102434.25;4948971;28;7877;-73
2021/12/19 02:32:49;;;;;;;;;;;;;;;10.84;62.27;102427.34;4966100;28;6948;-73
2021/12/19 02:35:21;;;;;;;;;;;;;;;10.84;62.19;102418.78;4948436;28;7247;-72
2021/12/19 02:38:19;;;;;;;;;;;;;;;10.85;62.36;102423.13;4964239;28;7007;-73
2021/12/19 02:49:23;;;;;;;;;;;;;;;10.87;62.06;102416.44;4965387;28;6963;-72
2021/12/19 02:51:51;;;;;;;;;;;;;;;10.87;62.08;102411.31;4966178;28;6812;-72
2021/12/19 02:54:17;;;;;;;;;;;;;;;10.89;61.77;102419.13;4947380;28;7089;-73
2021/12/19 02:56:43;;;;;;;;;;;;;;;10.88;62.16;102409.66;4964410;28;6984;-72
2021/12/19 02:59:09;;;;;;;;;;;;;;;10.89;62.41;102419.13;4964606;28;6812;-73
2021/12/19 03:01:35;;;;;;;;;;;;;;;10.88;61.99;102413.09;4964743;28;6991;-72
2021/12/19 03:04:01;;;;;;;;;;;;;;;10.89;62.21;102414.00;4968104;28;7513;-73
2021/12/19 03:06:27;;;;;;;;;;;;;;;10.89;62.11;102409.75;4966019;28;6871;-72
2021/12/19 03:08:53;;;;;;;;;;;;;;;10.88;62.36;102407.97;4968431;28;6844;-72
2021/12/19 03:19:34;;;;;;;;;;;;;;;10.90;62.12;102395.28;4969776;28;7062;-72
2021/12/19 03:21:59;;;;;;;;;;;;;;;10.91;62.25;102392.84;4966388;28;6784;-73
2021/12/19 03:24:25;;;;;;;;;;;;;;;10.94;62.25;102393.06;4966691;28;6832;-73
2021/12/19 03:26:51;;;;;;;;;;;;;;;10.96;62.19;102401.78;4968141;28;6820;-72
2021/12/19 03:29:16;;;;;;;;;;;;;;;10.96;62.13;102380.34;4966532;28;6974;-72
2021/12/19 03:31:43;;;;;;;;;;;;;;;10.96;62.07;102394.06;4969773;28;6792;-72
2021/12/19 03:34:08;;;;;;;;;;;;;;;10.95;61.94;102384.59;4967478;28;6887;-73
2021/12/19 03:36:34;;;;;;;;;;;;;;;10.96;62.03;102377.78;4966708;28;7007;-73
2021/12/19 03:39:04;;;;;;;;;;;;;;;10.96;61.96;102383.81;4969317;28;6788;-72
2021/12/19 03:41:35;;;;;;;;;;;;;;;10.96;61.78;102386.38;4966665;28;6804;-73
2021/12/19 03:44:04;;;;;;;;;;;;;;;10.97;61.94;102385.59;4967304;28;7166;-72
2021/12/19 03:46:29;;;;;;;;;;;;;;;10.98;62.29;102386.50;4966087;28;7865;-73
2021/12/19 03:48:55;;;;;;;;;;;;;;;10.96;61.94;102381.25;4951161;28;6930;-73
2021/12/19 03:51:21;;;;;;;;;;;;;;;10.94;61.58;102376.75;4969355;28;6999;-72
2021/12/19 03:53:47;;;;;;;;;;;;;;;10.94;61.78;102377.69;4951135;28;7145;-73
2021/12/19 03:56:13;;;;;;;;;;;;;;;10.93;62.33;102381.00;4966952;28;6792;-73
2021/12/19 03:58:39;;;;;;;;;;;;;;;10.91;62.25;102369.75;4952134;28;6802;-72
2021/12/19 04:01:07;;;;;;;;;;;;;;;10.92;61.61;102378.31;4964969;28;7248;-72
2021/12/19 04:03:33;;;;;;;;;;;;;;;10.90;62.16;102372.19;4979741;28;6808;-73
2021/12/19 04:05:59;;;;;;;;;;;;;;;10.88;62.06;102366.91;4963123;28;7012;-73
2021/12/19 04:08:24;;;;;;;;;;;;;;;10.89;62.24;102360.13;4962907;28;6800;-72
2021/12/19 04:10:53;;;;;;;;;;;;;;;10.89;62.08;102355.00;4963725;28;7325;-72
2021/12/19 04:13:21;;;;;;;;;;;;;;;10.90;62.16;102354.22;4962602;28;7053;-72
2021/12/19 04:15:50;;;;;;;;;;;;;;;10.91;62.10;102348.31;4946820;28;6879;-73
2021/12/19 04:18:16;;;;;;;;;;;;;;;10.92;61.76;102357.78;4964322;28;6823;-73
2021/12/19 04:20:42;;;;;;;;;;;;;;;10.90;62.11;102339.72;4961954;28;8138;-72
2021/12/19 04:23:09;;;;;;;;;;;;;;;10.91;62.13;102340.63;4963693;28;6973;-72
2021/12/19 04:25:34;;;;;;;;;;;;;;;10.90;62.19;102338.84;4948176;28;6895;-73
2021/12/19 04:28:00;;;;;;;;;;;;;;;10.90;62.17;102337.13;4947003;28;6821;-73
2021/12/19 04:30:27;;;;;;;;;;;;;;;10.89;62.15;102335.34;4964387;28;7202;-73
2021/12/19 04:35:31;;;;;;;;;;;;;;;10.87;62.18;102334.34;4977541;28;7044;-73
2021/12/19 04:40:38;;;;;;;;;;;;;;;10.82;61.95;102320.28;4964174;28;6824;-72
2021/12/19 04:57:26;;;;;;;;;;;;;;;10.76;62.63;102304.41;4949498;28;6812;-73
2021/12/19 05:02:27;;;;;;;;;;;;;;;10.75;62.10;102294.94;4962632;28;7253;-72
2021/12/19 05:05:22;;;;;;;;;;;;;;;10.74;62.84;102296.59;4965579;28;7531;-72
2021/12/19 05:16:01;;;;;;;;;;;;;;;10.66;62.68;102288.31;4962436;28;7275;-72
2021/12/19 05:18:30;;;;;;;;;;;;;;;10.67;62.39;102286.63;4962723;28;6792;-72
2021/12/19 05:21:00;;;;;;;;;;;;;;;10.67;62.59;102291.75;4948167;28;6907;-73
2021/12/19 05:25:55;;;;;;;;;;;;;;;10.66;62.62;102272.00;4961953;28;7059;-73
2021/12/19 05:28:21;;;;;;;;;;;;;;;10.65;62.63;102278.81;4948018;28;7533;-73
2021/12/19 05:30:46;;;;;;;;;;;;;;;10.64;62.57;102287.28;4962707;28;7008;-72
2021/12/19 05:33:12;;;;;;;;;;;;;;;10.64;62.66;102283.81;4963957;28;6800;-72
2021/12/19 05:45:11;;;;;;;;;;;;;;;10.67;62.88;102299.44;4963244;28;6816;-72
2021/12/19 05:46:57;;;;;;;;;;;;;;;10.69;62.50;102295.34;4962952;28;7604;-72
2021/12/19 05:49:23;;;;;;;;;;;;;;;10.70;62.94;102295.44;4961349;28;6801;-73
2021/12/19 05:51:49;;;;;;;;;;;;;;;10.73;62.66;102291.34;4963818;28;7085;-73
2021/12/19 05:54:15;;;;;;;;;;;;;;;10.74;62.55;102285.44;4965189;28;6795;-72
2021/12/19 05:56:42;;;;;;;;;;;;;;;10.74;62.77;102291.44;4966716;28;7149;-72
2021/12/19 05:59:10;;;;;;;;;;;;;;;10.74;62.94;102295.72;4982871;28;6820;-73
2021/12/19 06:01:38;;;;;;;;;;;;;;;10.73;62.64;102292.22;4965204;28;6808;-73
2021/12/19 06:04:04;;;;;;;;;;;;;;;10.69;62.89;102282.53;4966590;28;7437;-72
2021/12/19 06:06:30;;;;;;;;;;;;;;;10.66;62.55;102293.44;4965783;28;6784;-73
2021/12/19 06:08:56;;;;;;;;;;;;;;;10.63;62.68;102282.94;4966170;28;6787;-73
2021/12/19 06:11:21;;;;;;;;;;;;;;;10.63;62.76;102284.59;4966413;28;7023;-73
2021/12/19 06:13:47;;;;;;;;;;;;;;;10.62;62.89;102285.38;4966008;28;6828;-72
2021/12/19 06:16:13;;;;;;;;;;;;;;;10.61;62.51;102289.59;4965060;28;7214;-73
2021/12/19 06:18:39;;;;;;;;;;;;;;;10.60;62.83;102285.25;4966624;28;7150;-72
2021/12/19 06:21:05;;;;;;;;;;;;;;;10.60;62.63;102274.13;4964359;28;6890;-72
2021/12/19 06:23:33;;;;;;;;;;;;;;;10.59;62.41;102269.78;4949117;28;6792;-72
2021/12/19 06:25:59;;;;;;;;;;;;;;;10.59;62.84;102274.91;4948366;28;7370;-72
2021/12/19 06:28:25;;;;;;;;;;;;;;;10.57;62.57;102272.19;4965487;28;7281;-73
2021/12/19 06:30:51;;;;;;;;;;;;;;;10.54;62.27;102272.84;4966837;28;7468;-73
2021/12/19 06:33:16;;;;;;;;;;;;;;;10.52;62.65;102268.38;4948726;28;6784;-73
2021/12/19 06:35:43;;;;;;;;;;;;;;;10.51;62.94;102266.59;4980612;28;6887;-73
2021/12/19 06:38:09;;;;;;;;;;;;;;;10.50;62.75;102265.72;4965455;28;6996;-73
2021/12/19 06:40:35;;;;;;;;;;;;;;;10.51;62.75;102269.16;4948141;28;6991;-73
2021/12/19 06:43:02;;;;;;;;;;;;;;;10.50;62.75;102270.84;4965323;28;7643;-73
2021/12/19 06:45:28;;;;;;;;;;;;;;;10.51;62.64;102264.03;4949020;28;6812;-72
2021/12/19 06:47:54;;;;;;;;;;;;;;;10.53;62.96;102259.94;4964584;28;11054;-72
2021/12/19 06:50:20;;;;;;;;;;;;;;;10.54;62.95;102261.72;4966308;28;6959;-72
2021/12/19 06:52:47;;;;;;;;;;;;;;;10.53;62.68;102260.81;4964234;28;6883;-73
2021/12/19 06:55:16;;;;;;;;;;;;;;;10.53;62.81;102255.69;4980877;28;7125;-73
2021/12/19 06:57:42;;;;;;;;;;;;;;;10.53;63.03;102255.69;4965450;28;6808;-73
2021/12/19 07:00:14;;;;;;;;;;;;;;;10.52;62.38;102252.97;4963700;28;6792;-72
2021/12/19 07:02:40;;;;;;;;;;;;;;;10.50;62.64;102254.53;4958866;28;7027;-73
2021/12/19 07:05:06;;;;;;;;;;;;;;;10.49;62.46;102245.97;4965121;28;6876;-73
2021/12/19 07:07:32;;;;;;;;;;;;;;;10.48;62.77;102241.63;4979186;28;6796;-73
2021/12/19 07:09:58;;;;;;;;;;;;;;;10.48;62.76;102243.28;4965435;28;7575;-72
2021/12/19 07:12:26;;;;;;;;;;;;;;;10.48;62.52;102240.72;4947916;28;6977;-72
2021/12/19 07:14:54;;;;;;;;;;;;;;;10.48;62.78;102250.97;4964671;28;7152;-72
2021/12/19 07:17:19;;;;;;;;;;;;;;;10.48;62.68;102245.84;4964662;28;8257;-72
2021/12/19 07:19:45;;;;;;;;;;;;;;;10.47;63.11;102247.50;4964042;28;6874;-72
2021/12/19 07:22:11;;;;;;;;;;;;;;;10.45;62.64;102250.75;4964722;28;7209;-73
2021/12/19 07:24:37;;;;;;;;;;;;;;;10.42;62.37;102247.13;4965060;28;7221;-73
2021/12/19 07:27:03;;;;;;;;;;;;;;;10.38;62.85;102247.66;4947496;28;7273;-73
2021/12/19 07:29:30;;;;;;;;;;;;;;;10.36;62.80;102248.31;4949575;28;8299;-73
2021/12/19 07:31:55;;;;;;;;;;;;;;;10.35;62.89;102249.06;4963841;28;7082;-73
2021/12/19 07:34:28;;;;;;;;;;;;;;;10.32;62.35;102247.16;4964259;28;7205;-72
2021/12/19 07:36:54;;;;;;;;;;;;;;;10.31;62.84;102250.50;4965100;28;6816;-72
2021/12/19 07:39:52;;;;;;;;;;;;;;;10.30;62.56;102243.59;4963959;28;6792;-72
2021/12/19 07:42:11;;;;;;;;;;;;;;;10.30;62.56;102235.03;4963534;28;7540;-72
2021/12/19 07:44:39;;;;;;;;;;;;;;;10.30;62.54;102243.59;4980256;28;6792;-72
2021/12/19 07:47:07;;;;;;;;;;;;;;;10.29;63.00;102241.81;4963416;28;7156;-72
2021/12/19 07:49:33;;;;;;;;;;;;;;;10.29;62.91;102239.25;4962815;28;6808;-72
2021/12/19 07:51:59;;;;;;;;;;;;;;;10.29;62.74;102239.25;4963478;28;6804;-72
2021/12/19 07:54:24;;;;;;;;;;;;;;;10.28;62.75;102229.75;4964269;28;7150;-73
2021/12/19 07:56:52;;;;;;;;;;;;;;;10.28;62.77;102229.75;4965344;28;6788;-72
2021/12/19 07:59:18;;;;;;;;;;;;;;;10.29;63.11;102236.69;4963369;28;6994;-72
2021/12/19 08:01:44;;;;;;;;;;;;;;;10.30;62.92;102230.78;4948058;28;7055;-72
2021/12/19 08:04:10;;;;;;;;;;;;;;;10.30;62.99;102235.91;4966051;28;7388;-72
2021/12/19 08:06:35;;;;;;;;;;;;;;;10.31;63.40;102240.25;4962699;28;6792;-72
2021/12/19 08:09:09;;;;;;;;;;;;;;;10.33;62.66;102230.13;4964617;28;6958;-72
2021/12/19 08:11:40;;;;;;;;;;;;;;;10.34;63.05;102226.78;4948889;28;7827;-73
2021/12/19 08:14:10;;;;;;;;;;;;;;;10.35;63.05;102236.25;4963463;28;7158;-72
2021/12/19 08:16:36;;;;;;;;;;;;;;;10.36;62.92;102228.69;4961778;28;7484;-72
2021/12/19 08:19:03;;;;;;;;;;;;;;;10.38;62.68;102231.38;4962887;28;6800;-72
2021/12/19 08:21:29;;;;;;;;;;;;;;;10.38;63.18;102232.28;4947966;28;6796;-72
2021/12/19 08:23:58;;;;;;;;;;;;;;;10.39;62.75;102221.25;4964683;28;6787;-72
2021/12/19 08:26:24;;;;;;;;;;;;;;;10.42;63.46;102220.63;4962043;28;6808;-72
2021/12/19 08:28:50;;;;;;;;;;;;;;;10.45;62.73;102220.84;4962505;28;7008;-72
2021/12/19 08:31:16;;;;;;;;;;;;;;;10.48;62.81;102217.66;4964512;28;6867;-72
2021/12/19 08:33:42;;;;;;;;;;;;;;;10.48;62.83;102225.34;4946191;28;7038;-73
2021/12/19 08:36:07;;;;;;;;;;;;;;;10.50;63.17;102214.44;4931216;28;7154;-72
2021/12/19 08:38:34;;;;;;;;;;;;;;;10.52;62.42;102218.00;4978870;28;7292;-73
2021/12/19 08:41:00;;;;;;;;;;;;;;;10.52;62.76;102211.97;4963117;28;6803;-72
2021/12/19 08:43:25;;;;;;;;;;;;;;;10.51;62.91;102212.75;4947364;28;7054;-72
2021/12/19 08:45:52;;;;;;;;;;;;;;;10.49;62.57;102211.75;4945839;28;6959;-72
2021/12/19 08:48:18;;;;;;;;;;;;;;;10.49;63.12;102217.78;4964023;28;6891;-72
2021/12/19 08:50:48;;;;;;;;;;;;;;;10.50;63.22;102218.66;4963990;28;7327;-73
2021/12/19 08:53:14;;;;;;;;;;;;;;;10.49;62.63;102211.75;4962127;28;6785;-72
2021/12/19 08:55:40;;;;;;;;;;;;;;;10.52;63.32;102212.88;4962803;28;6800;-72
2021/12/19 08:58:05;;;;;;;;;;;;;;;10.53;63.27;102213.78;4963520;28;6804;-72
2021/12/19 09:00:33;;;;;;;;;;;;;;;10.55;63.07;102207.09;4962323;28;6788;-72
2021/12/19 09:03:00;;;;;;;;;;;;;;;10.59;62.68;102198.84;4948606;28;6968;-72
2021/12/19 09:05:29;;;;;;;;;;;;;;;10.60;62.88;102200.63;4960736;28;6963;-72
2021/12/19 09:07:55;;;;;;;;;;;;;;;10.61;63.26;102199.84;4938512;28;6973;-72
2021/12/19 09:10:22;;;;;;;;;;;;;;;10.64;62.86;102202.69;4959674;28;6997;-72
2021/12/19 09:12:49;;;;;;;;;;;;;;;10.66;63.08;102200.19;4961809;28;6812;-72
2021/12/19 09:15:15;;;;;;;;;;;;;;;10.67;62.90;102196.88;4963137;28;6922;-72
2021/12/19 09:17:41;;;;;;;;;;;;;;;10.67;62.74;102205.47;4977842;28;6803;-72
2021/12/19 09:20:09;;;;;;;;;;;;;;;10.66;62.64;102198.56;4963035;28;6800;-72
2021/12/19 09:22:36;;;;;;;;;;;;;;;10.66;62.75;102195.97;4964675;28;6812;-73
2021/12/19 09:25:03;;;;;;;;;;;;;;;10.66;62.63;102202.78;4960947;28;7372;-72
2021/12/19 09:27:29;;;;;;;;;;;;;;;10.67;62.57;102202.91;4963117;28;6865;-72
2021/12/19 09:29:54;;;;;;;;;;;;;;;10.66;62.64;102203.69;4951379;28;7286;-72
2021/12/19 09:32:20;;;;;;;;;;;;;;;10.66;63.05;102203.69;4966420;28;8186;-72
2021/12/19 09:34:46;;;;;;;;;;;;;;;10.66;62.98;102198.56;4966372;28;7063;-72
2021/12/19 09:37:13;;;;;;;;;;;;;;;10.69;62.83;102203.91;4949525;28;6992;-72
2021/12/19 09:39:39;;;;;;;;;;;;;;;10.69;62.86;102206.47;4948666;28;6820;-72
2021/12/19 09:42:10;;;;;;;;;;;;;;;10.71;62.56;102209.16;4966673;28;6812;-72
2021/12/19 09:44:39;;;;;;;;;;;;;;;10.73;62.37;102207.59;4966111;28;6819;-72
2021/12/19 09:47:07;;;;;;;;;;;;;;;10.73;63.07;102202.47;4965038;28;7109;-72
2021/12/19 09:49:35;;;;;;;;;;;;;;;10.74;62.57;102193.13;4983479;28;6808;-72
2021/12/19 09:52:07;;;;;;;;;;;;;;;10.76;63.08;102194.13;4964665;28;6812;-72
2021/12/19 09:54:36;;;;;;;;;;;;;;;10.77;62.94;102199.38;4964887;28;7027;-72
2021/12/19 09:57:03;;;;;;;;;;;;;;;10.77;62.64;102189.13;4965707;28;7868;-72
2021/12/19 09:59:29;;;;;;;;;;;;;;;10.78;62.34;102187.44;4949222;28;7023;-72
2021/12/19 10:01:55;;;;;;;;;;;;;;;10.79;62.83;102189.22;4966815;28;6995;-72
2021/12/19 10:04:44;;;;;;;;;;;;;;;10.79;62.69;102179.88;4965869;28;8140;-72
2021/12/19 10:07:18;;;;;;;;;;;;;;;10.76;62.53;102182.19;4964506;28;7354;-72
2021/12/19 10:10:01;;;;;;;;;;;;;;;10.78;62.50;102175.50;4965810;28;6835;-72
2021/12/19 10:12:48;;;;;;;;;;;;;;;10.81;62.89;102178.31;4966621;28;6836;-72
2021/12/19 10:15:18;;;;;;;;;;;;;;;10.83;62.72;102160.47;4964904;28;6816;-72
2021/12/19 10:17:47;;;;;;;;;;;;;;;10.84;62.48;102155.44;4964079;28;6989;-72
2021/12/19 10:20:16;;;;;;;;;;;;;;;10.86;62.86;102153.00;4949253;28;7249;-72
2021/12/19 10:22:46;;;;;;;;;;;;;;;10.89;62.50;102150.66;4964766;28;7023;-72
2021/12/19 10:25:22;;;;;;;;;;;;;;;10.92;62.37;102150.00;4966436;28;6812;-72
2021/12/19 10:27:56;;;;;;;;;;;;;;;10.92;62.57;102142.28;4965641;28;7155;-72
2021/12/19 10:30:34;;;;;;;;;;;;;;;10.96;62.64;102139.16;4962987;28;6997;-73
2021/12/19 10:33:11;;;;;;;;;;;;;;;10.97;62.64;102136.72;4968080;28;7081;-72
2021/12/19 10:35:51;;;;;;;;;;;;;;;10.99;62.38;102134.28;4963814;28;7015;-73
2021/12/19 10:38:22;;;;;;;;;;;;;;;11.00;62.10;102136.06;4963924;28;6886;-72
2021/12/19 10:41:20;;;;;;;;;;;;;;;11.01;62.74;102131.81;4965213;28;6820;-73
2021/12/19 10:43:56;;;;;;;;;;;;;;;11.02;62.40;102128.50;4961367;28;7156;-72
2021/12/19 10:46:33;;;;;;;;;;;;;;;11.05;62.22;102118.44;4962543;28;6815;-72
2021/12/19 10:49:01;;;;;;;;;;;;;;;11.04;62.42;102114.97;4965821;28;6820;-72
2021/12/19 10:51:30;;;;;;;;;;;;;;;11.04;62.32;102120.09;4980877;28;6857;-72
2021/12/19 10:54:03;;;;;;;;;;;;;;;11.05;62.19;102118.44;4965559;28;6815;-72
2021/12/19 10:56:32;;;;;;;;;;;;;;;11.06;62.62;102112.53;4965020;28;7298;-73
2021/12/19 10:59:08;;;;;;;;;;;;;;;11.06;62.20;102116.00;4948976;28;7651;-72
2021/12/19 11:01:44;;;;;;;;;;;;;;;11.06;62.26;102104.84;4965842;28;7205;-72
2021/12/19 11:04:20;;;;;;;;;;;;;;;11.05;62.33;102106.50;4965354;28;6980;-72
2021/12/19 11:07:02;;;;;;;;;;;;;;;11.05;62.47;102100.47;4963402;28;7370;-72
2021/12/19 11:09:37;;;;;;;;;;;;;;;11.03;62.32;102099.50;4963804;28;6983;-72
2021/12/19 11:12:11;;;;;;;;;;;;;;;11.00;61.78;102088.97;4950086;28;7264;-72
2021/12/19 11:14:48;;;;;;;;;;;;;;;10.98;62.33;102087.19;4965504;28;6982;-72
2021/12/19 11:17:24;;;;;;;;;;;;;;;10.97;62.29;102080.28;4964404;28;6804;-72
2021/12/19 11:19:54;;;;;;;;;;;;;;;10.97;62.55;102080.28;4964625;28;7023;-72
2021/12/19 11:22:26;;;;;;;;;;;;;;;10.98;62.33;102070.94;4947824;28;6887;-72
2021/12/19 11:25:01;;;;;;;;;;;;;;;10.98;62.30;102071.81;4964624;28;7027;-72
2021/12/19 11:27:29;;;;;;;;;;;;;;;10.98;62.15;102061.53;4948946;28;6811;-72
2021/12/19 11:29:56;;;;;;;;;;;;;;;11.02;62.33;102064.34;4964865;28;8580;-72
2021/12/19 11:32:36;;;;;;;;;;;;;;;11.03;61.97;102063.56;4980821;28;6998;-72
2021/12/19 11:35:22;;;;;;;;;;;;;;;11.03;62.15;102053.31;4949902;28;6999;-72
2021/12/19 11:37:57;;;;;;;;;;;;;;;11.04;62.00;102047.38;4962581;28;6896;-72
2021/12/19 11:40:24;;;;;;;;;;;;;;;11.03;62.41;102046.47;4936765;28;6842;-72
2021/12/19 11:43:09;;;;;;;;;;;;;;;11.04;62.00;102040.56;4964996;28;7236;-72
2021/12/19 11:45:55;;;;;;;;;;;;;;;11.05;62.26;102039.78;4946721;28;7354;-72
2021/12/19 11:48:29;;;;;;;;;;;;;;;11.06;61.83;102033.00;4965588;28;6897;-72
2021/12/19 11:51:24;;;;;;;;;;;;;;;11.07;62.08;102032.19;4964233;28;6820;-72
2021/12/19 11:53:51;;;;;;;;;;;;;;;11.09;62.00;102033.19;4927815;28;7083;-72
2021/12/19 11:56:20;;;;;;;;;;;;;;;11.12;62.07;102030.88;4946640;28;6962;-72
2021/12/19 11:58:53;;;;;;;;;;;;;;;11.13;62.20;102024.97;4979880;28;7138;-72
2021/12/19 12:01:25;;;;;;;;;;;;;;;11.18;62.25;102022.72;4963957;28;6808;-72
2021/12/19 12:04:14;;;;;;;;;;;;;;;11.19;62.11;102024.50;4979616;28;7310;-72
2021/12/19 12:06:52;;;;;;;;;;;;;;;11.17;62.28;102019.25;4963578;28;6840;-72
2021/12/19 12:09:39;;;;;;;;;;;;;;;11.19;61.70;102012.53;4962310;28;7169;-72
2021/12/19 12:12:13;;;;;;;;;;;;;;;11.22;62.34;102015.34;4961317;28;7039;-72
2021/12/19 12:14:54;;;;;;;;;;;;;;;11.23;61.73;102012.00;4948886;28;7383;-73
2021/12/19 12:17:35;;;;;;;;;;;;;;;11.27;61.78;102009.63;4978521;28;7763;-72
2021/12/19 12:20:16;;;;;;;;;;;;;;;11.28;61.69;102004.63;4961397;28;6980;-72
2021/12/19 12:22:57;;;;;;;;;;;;;;;11.29;61.80;102005.50;4964595;28;7868;-72
2021/12/19 12:25:28;;;;;;;;;;;;;;;11.28;61.66;101994.34;4979272;28;7162;-72
2021/12/19 12:28:05;;;;;;;;;;;;;;;11.29;61.76;102000.38;4962872;28;7137;-72
2021/12/19 12:30:41;;;;;;;;;;;;;;;11.28;61.74;101994.34;4962578;28;6895;-72
2021/12/19 12:33:12;;;;;;;;;;;;;;;11.30;61.30;101986.75;4964583;28;7015;-72
2021/12/19 12:35:40;;;;;;;;;;;;;;;11.29;61.47;101991.00;4947350;28;7935;-72
2021/12/19 12:38:08;;;;;;;;;;;;;;;11.30;62.05;101984.19;4947744;28;6836;-72
2021/12/19 12:41:06;;;;;;;;;;;;;;;11.29;61.59;101977.25;4978947;28;6812;-73
2021/12/19 12:43:33;;;;;;;;;;;;;;;11.29;61.39;101974.69;4961956;28;6951;-72
2021/12/19 12:46:07;;;;;;;;;;;;;;;11.28;61.47;101972.91;4962503;28;6892;-72
2021/12/19 12:48:54;;;;;;;;;;;;;;;11.26;61.92;101975.41;4947742;28;7267;-72
2021/12/19 12:51:37;;;;;;;;;;;;;;;11.25;61.63;101968.44;4960159;28;6820;-72
2021/12/19 12:54:13;;;;;;;;;;;;;;;11.25;61.64;101966.78;4964566;28;8134;-72
2021/12/19 12:56:46;;;;;;;;;;;;;;;11.24;61.96;101965.00;4962886;28;6820;-72
2021/12/19 12:59:17;;;;;;;;;;;;;;;11.25;61.58;101956.53;4942254;28;7112;-72
2021/12/19 13:01:53;;;;;;;;;;;;;;;11.28;61.46;101950.72;4946767;28;6800;-72
2021/12/19 13:04:26;;;;;;;;;;;;;;;11.29;62.03;101941.34;4937194;28;8061;-72
2021/12/19 13:07:00;;;;;;;;;;;;;;;11.30;61.67;101938.88;4960298;28;6812;-72
2021/12/19 13:09:32;;;;;;;;;;;;;;;11.31;61.82;101940.66;4962459;28;7054;-72
2021/12/19 13:12:32;;;;;;;;;;;;;;;11.33;61.46;101940.78;4947321;28;6976;-72
2021/12/19 13:15:02;;;;;;;;;;;;;;;11.34;61.62;101938.28;4958502;28;6896;-73
2021/12/19 13:17:29;;;;;;;;;;;;;;;11.35;62.00;101944.34;4945370;28;8016;-72
2021/12/19 13:20:06;;;;;;;;;;;;;;;11.36;61.51;101940.97;4963184;28;7184;-72
2021/12/19 13:22:59;;;;;;;;;;;;;;;11.35;61.58;101946.91;4962060;28;6951;-72
2021/12/19 13:25:40;;;;;;;;;;;;;;;11.35;61.85;101939.19;4962603;28;6820;-73
2021/12/19 13:28:12;;;;;;;;;;;;;;;11.34;61.04;101934.84;4978100;28;7318;-72
2021/12/19 13:30:46;;;;;;;;;;;;;;;11.34;61.34;101927.16;4962029;28;6904;-72
2021/12/19 13:33:16;;;;;;;;;;;;;;;11.35;61.49;101928.94;4961860;28;6965;-72
2021/12/19 13:35:46;;;;;;;;;;;;;;;11.33;61.28;101920.25;4963502;28;6789;-72
2021/12/19 13:38:13;;;;;;;;;;;;;;;11.32;61.63;101926.16;4946079;28;6961;-72
2021/12/19 13:40:49;;;;;;;;;;;;;;;11.32;61.65;101931.28;4947076;28;6792;-72
2021/12/19 13:43:38;;;;;;;;;;;;;;;11.31;61.49;101925.25;4978296;28;6979;-72
2021/12/19 13:46:13;;;;;;;;;;;;;;;11.30;61.39;101914.88;4960354;28;7442;-72
2021/12/19 13:48:59;;;;;;;;;;;;;;;11.29;61.58;101918.22;4962102;28;7856;-72
2021/12/19 13:51:28;;;;;;;;;;;;;;;11.29;61.64;101908.88;4962769;28;6952;-72
2021/12/19 13:53:57;;;;;;;;;;;;;;;11.28;61.56;101909.66;4961303;28;6811;-72
2021/12/19 13:56:31;;;;;;;;;;;;;;;11.28;61.50;101908.75;4944593;28;6809;-72
2021/12/19 13:59:02;;;;;;;;;;;;;;;11.30;61.61;101909.75;4963732;28;7606;-72
2021/12/19 14:01:35;;;;;;;;;;;;;;;11.32;61.56;101910.75;4960773;28;7202;-72
2021/12/19 14:04:20;;;;;;;;;;;;;;;11.32;61.63;101913.34;4963073;28;6988;-73
2021/12/19 14:06:48;;;;;;;;;;;;;;;11.31;61.50;101919.25;4962787;28;6989;-72
2021/12/19 14:09:21;;;;;;;;;;;;;;;11.29;61.49;101907.97;4945365;28;6986;-72